Time;durP1;ratioP1;P1;durP2;ratioP2;P2;SDS_P1;SDS_P2;PMS_P1;PMS_P2;Temp;Humidity;BMP_temperature;BMP_pressure;BME280_temperature;BME280_humidity;BME280_pressure;Samples;Min_cycle;Max_cycle;Signal;HPM_P1;HPM_P2
2021/08/28 00:00:37;;;;;;;5.97;2.45;;;;;;;18.08;59.53;101887.25;4859288;28;114028;-69
2021/08/28 00:03:05;;;;;;;6.30;2.72;;;;;;;18.07;59.64;101887.34;4859862;28;114488;-69
2021/08/28 00:05:32;;;;;;;9.23;2.67;;;;;;;18.07;59.91;101873.94;4861722;28;124172;-69
2021/08/28 00:07:59;;;;;;;6.07;2.67;;;;;;;18.06;59.87;101881.13;4859695;28;123994;-69
2021/08/28 00:10:27;;;;;;;5.07;2.53;;;;;;;18.06;59.87;101875.75;4859955;28;115315;-69
2021/08/28 00:12:54;;;;;;;11.02;3.10;;;;;;;18.06;60.05;101873.06;4859152;28;115618;-69
2021/08/28 00:15:21;;;;;;;5.28;2.60;;;;;;;18.06;60.00;101873.06;4858240;28;123079;-69
2021/08/28 00:17:48;;;;;;;7.43;2.80;;;;;;;18.07;59.99;101869.41;4845941;28;122917;-69
2021/08/28 00:20:16;;;;;;;6.85;2.75;;;;;;;18.07;60.10;101864.06;4864198;28;114290;-69
2021/08/28 00:22:43;;;;;;;6.20;2.60;;;;;;;18.09;60.23;101862.16;4848232;28;112792;-69
2021/08/28 00:25:11;;;;;;;5.00;2.53;;;;;;;18.11;60.30;101856.69;4862148;28;123939;-68
2021/08/28 00:27:38;;;;;;;5.85;2.40;;;;;;;18.12;60.13;101855.75;4862315;28;124849;-68
2021/08/28 00:30:06;;;;;;;7.45;2.67;;;;;;;18.13;60.52;101857.47;4869147;28;113910;-68
2021/08/28 00:32:34;;;;;;;8.10;2.72;;;;;;;18.15;60.42;101854.69;4862077;28;113163;-68
2021/08/28 00:35:01;;;;;;;6.85;2.70;;;;;;;18.17;60.46;101852.78;4863980;28;123414;-68
2021/08/28 00:37:28;;;;;;;6.47;2.75;;;;;;;18.18;60.31;101851.84;4844495;28;123231;-68
2021/08/28 00:39:55;;;;;;;8.32;2.60;;;;;;;18.17;60.32;101858.13;4865960;28;113799;-68
2021/08/28 00:42:24;;;;;;;6.10;2.60;;;;;;;18.17;60.25;101856.31;4844198;28;113219;-68
2021/08/28 00:44:52;;;;;;;7.38;2.70;;;;;;;18.18;60.40;101843.78;4858108;28;122960;-68
2021/08/28 00:47:19;;;;;;;8.95;2.70;;;;;;;18.18;60.50;101843.78;4862142;28;123781;-69
2021/08/28 00:49:47;;;;;;;6.72;2.63;;;;;;;18.18;60.36;101843.78;4846112;28;112814;-69
2021/08/28 00:52:21;;;;;;;6.22;2.45;;;;;;;18.18;60.10;101843.78;4860143;28;114043;-68
2021/08/28 00:54:50;;;;;;;7.53;2.75;;;;;;;18.17;60.26;101847.41;4830147;28;123973;-69
2021/08/28 00:57:17;;;;;;;7.25;3.05;;;;;;;18.17;60.13;101847.41;4856422;28;123153;-69
2021/08/28 00:59:48;;;;;;;7.05;2.63;;;;;;;18.15;59.79;101843.97;4861308;28;114744;-69
2021/08/28 01:02:16;;;;;;;5.38;2.70;;;;;;;18.14;60.27;101847.59;4859711;28;114766;-69
2021/08/28 01:04:50;;;;;;;6.07;2.63;;;;;;;18.13;60.20;101845.88;4857175;28;122880;-69
2021/08/28 01:07:28;;;;;;;10.27;3.10;;;;;;;18.12;60.08;101846.81;4860553;28;122972;-69
2021/08/28 01:10:26;;;;;;;4.80;2.53;;;;;;;18.10;60.38;101846.91;4851315;28;114788;-69
2021/08/28 01:13:12;;;;;;;5.75;2.40;;;;;;;18.08;60.26;101851.50;4858917;28;114563;-69
2021/08/28 01:15:41;;;;;;;8.57;3.38;;;;;;;18.07;60.07;101853.34;4843496;28;123154;-69
2021/08/28 01:18:11;;;;;;;6.97;2.90;;;;;;;18.06;60.26;101846.25;4846078;28;122978;-69
2021/08/28 01:20:43;;;;;;;8.05;2.80;;;;;;;18.04;60.65;101845.47;4857398;28;113780;-69
2021/08/28 01:23:40;;;;;;;7.07;2.83;;;;;;;18.05;60.49;101855.25;4807207;28;114200;-69
2021/08/28 01:26:53;;;;;;;6.63;2.67;;;;;;;18.07;60.38;101858.69;4839368;28;124325;-69
2021/08/28 01:29:25;;;;;;;5.45;2.80;;;;;;;18.08;60.48;101860.44;4860472;28;124055;-69
2021/08/28 01:31:54;;;;;;;7.30;3.00;;;;;;;18.08;60.52;101849.72;4858781;28;113531;-69
2021/08/28 01:34:23;;;;;;;7.65;2.88;;;;;;;18.07;60.71;101847.97;4844558;28;113228;-69
2021/08/28 01:36:52;;;;;;;7.65;2.83;;;;;;;18.09;60.70;101846.06;4829501;28;123169;-69
2021/08/28 01:39:39;;;;;;;7.20;2.92;;;;;;;18.12;60.82;101854.88;4863378;28;124690;-69
2021/08/28 01:42:09;;;;;;;6.55;3.08;;;;;;;18.13;60.91;101841.38;4860666;28;113395;-69
2021/08/28 01:44:37;;;;;;;5.60;2.78;;;;;;;18.15;60.93;101843.97;4861344;28;113056;-69
2021/08/28 01:47:08;;;;;;;9.82;3.08;;;;;;;18.16;60.95;101843.00;4845562;28;123868;-69
2021/08/28 01:49:40;;;;;;;9.30;3.40;;;;;;;18.19;61.06;101850.88;4843760;28;123077;-69
2021/08/28 01:52:08;;;;;;;6.60;3.30;;;;;;;18.21;60.99;101851.63;4844301;28;114517;-69
2021/08/28 01:54:38;;;;;;;6.90;2.92;;;;;;;18.23;61.08;101855.06;4863146;28;114614;-69
2021/08/28 01:57:07;;;;;;;8.40;3.08;;;;;;;18.24;61.15;101855.00;4861604;28;124446;-69
2021/08/28 01:59:38;;;;;;;6.43;2.70;;;;;;;18.26;61.00;101857.59;4848991;28;123656;-69
2021/08/28 02:02:39;;;;;;;7.10;3.00;;;;;;;18.29;60.85;101857.41;4860618;28;114951;-69
2021/08/28 02:05:11;;;;;;;6.60;2.85;;;;;;;18.31;61.05;101855.50;4855974;28;114215;-69
2021/08/28 02:07:54;;;;;;;7.53;2.87;;;;;;;18.31;61.08;101855.50;4843771;28;123701;-69
2021/08/28 02:10:38;;;;;;;5.55;2.65;;;;;;;18.34;61.28;101849.91;4856515;28;123818;-69
2021/08/28 02:13:13;;;;;;;6.90;2.75;;;;;;;18.36;61.27;101848.00;4858184;28;114057;-69
2021/08/28 02:15:46;;;;;;;9.50;3.00;;;;;;;18.39;61.42;101853.19;4845536;28;111974;-69
2021/08/28 02:18:30;;;;;;;8.27;2.83;;;;;;;18.40;61.37;101838.81;4843895;28;123257;-69
2021/08/28 02:21:17;;;;;;;7.22;2.70;;;;;;;18.43;61.22;101843.97;4859347;28;124657;-69
2021/08/28 02:23:57;;;;;;;7.50;2.50;;;;;;;18.46;61.46;101842.94;4857354;28;113448;-69
2021/08/28 02:26:36;;;;;;;7.40;2.70;;;;;;;18.47;61.63;101840.16;4858742;28;114080;-69
2021/08/28 02:29:08;;;;;;;7.60;2.90;;;;;;;18.51;61.62;101834.59;4858446;28;123953;-69
2021/08/28 02:31:43;;;;;;;7.47;2.42;;;;;;;18.52;61.80;101836.34;4844478;28;123778;-69
2021/08/28 02:34:15;;;;;;;6.65;2.65;;;;;;;18.55;61.51;101836.13;4858116;28;97320;-69
2021/08/28 02:36:45;;;;;;;5.13;2.35;;;;;;;18.58;61.74;101830.59;4844307;28;113460;-69
2021/08/28 02:39:17;;;;;;;6.20;2.60;;;;;;;18.60;61.71;101834.03;4844400;28;123023;-69
2021/08/28 02:41:48;;;;;;;8.68;2.88;;;;;;;18.63;61.57;101826.66;4858056;28;123642;-69
2021/08/28 02:44:16;;;;;;;5.10;2.38;;;;;;;18.66;61.34;101830.94;4857663;23;114545;-67
2021/08/28 02:46:45;;;;;;;6.97;2.70;;;;;;;18.68;61.54;101827.22;4812629;29;113761;-67
2021/08/28 02:49:16;;;;;;;7.57;2.97;;;;;;;18.70;61.69;101843.19;4811156;29;123285;-65
2021/08/28 02:51:44;;;;;;;8.07;2.80;;;;;;;18.71;61.89;101839.56;4812166;29;123641;-67
2021/08/28 02:54:16;;;;;;;6.35;2.80;;;;;;;18.72;61.51;101843.09;4829084;29;113457;-65
2021/08/28 02:56:47;;;;;;;11.60;2.90;;;;;;;18.72;61.59;101838.59;4828372;29;112236;-67
2021/08/28 02:59:16;;;;;;;10.43;2.88;;;;;;;18.74;61.56;101836.72;4835464;29;124095;-66
2021/08/28 03:01:44;;;;;;;6.43;2.67;;;;;;;18.75;61.48;101841.09;4836640;29;123148;-66
2021/08/28 03:04:18;;;;;;;5.95;2.67;;;;;;;18.76;61.62;101842.84;4806091;29;114003;-66
2021/08/28 03:06:46;;;;;;;8.63;2.60;;;;;;;18.78;61.83;101843.59;4806819;29;114163;-66
2021/08/28 03:09:18;;;;;;;8.18;2.92;;;;;;;18.78;61.66;101843.59;4820251;29;123758;-66
2021/08/28 03:11:46;;;;;;;7.72;2.65;;;;;;;18.79;61.87;101834.56;4805834;29;122875;-66
2021/08/28 03:14:15;;;;;;;5.22;2.40;;;;;;;18.80;61.72;101820.25;4824336;29;113415;-66
2021/08/28 03:16:47;;;;;;;6.88;2.58;;;;;;;18.80;61.74;101830.97;4820818;29;113016;-66
2021/08/28 03:19:34;;;;;;;7.15;2.72;;;;;;;18.80;61.87;101825.59;4821805;29;123821;-66
2021/08/28 03:22:03;;;;;;;6.03;2.78;;;;;;;18.79;61.91;101839.94;4822441;29;124452;-66
2021/08/28 03:24:33;;;;;;;6.90;2.72;;;;;;;18.79;61.91;101837.25;4821013;29;113890;-66
2021/08/28 03:27:08;;;;;;;7.93;2.92;;;;;;;18.78;62.06;101832.88;4804786;29;117126;-66
2021/08/28 03:29:37;;;;;;;8.38;2.95;;;;;;;18.78;62.28;101838.22;4808010;29;123385;-66
2021/08/28 03:32:06;;;;;;;8.00;2.95;;;;;;;18.81;62.03;101838.03;4836000;29;122974;-67
2021/08/28 03:34:37;;;;;;;6.57;3.00;;;;;;;18.81;62.32;101832.69;4819593;29;114762;-66
2021/08/28 03:37:07;;;;;;;7.55;3.08;;;;;;;18.84;62.16;101837.00;4832996;29;114952;-66
2021/08/28 03:39:37;;;;;;;7.47;2.85;;;;;;;18.88;62.39;101832.31;4827598;29;123576;-66
2021/08/28 03:42:06;;;;;;;8.70;3.13;;;;;;;18.89;62.27;101828.66;4807481;29;121762;-66
2021/08/28 03:44:39;;;;;;;8.35;3.10;;;;;;;18.92;62.35;101829.31;4821486;29;113308;-66
2021/08/28 03:47:08;;;;;;;6.90;2.50;;;;;;;18.94;62.16;101832.75;4807309;29;113940;-66
2021/08/28 03:49:36;;;;;;;10.85;3.22;;;;;;;18.96;62.21;101832.66;4834564;29;124234;-66
2021/08/28 03:52:03;;;;;;;9.02;3.40;;;;;;;18.98;62.32;101828.91;4805874;29;123090;-66
2021/08/28 03:54:31;;;;;;;8.60;2.90;;;;;;;19.01;62.29;101827.88;4822028;29;113753;-66
2021/08/28 03:56:58;;;;;;;5.53;2.55;;;;;;;19.03;62.33;101829.47;4820384;29;112681;-66
2021/08/28 03:59:25;;;;;;;9.05;2.97;;;;;;;19.06;62.35;101828.41;4819225;29;123803;-66
2021/08/28 04:01:54;;;;;;;8.13;3.40;;;;;;;19.09;62.32;101825.53;4806079;29;123013;-66
2021/08/28 04:04:44;;;;;;;7.78;3.10;;;;;;;19.10;62.28;101826.38;4835815;29;114565;-66
2021/08/28 04:07:12;;;;;;;7.78;2.78;;;;;;;19.10;62.28;101821.91;4823661;29;113741;-66
2021/08/28 04:09:39;;;;;;;5.80;2.90;;;;;;;19.11;62.24;101823.59;4834373;29;124386;-66
2021/08/28 04:12:07;;;;;;;6.43;3.08;;;;;;;19.10;62.21;101819.22;4820195;29;122880;-66
2021/08/28 04:14:41;;;;;;;6.80;3.10;;;;;;;19.10;62.13;101816.53;4806622;29;113173;-66
2021/08/28 04:17:08;;;;;;;6.25;2.78;;;;;;;19.09;62.18;101825.53;4805374;29;113244;-67
2021/08/28 04:19:36;;;;;;;7.68;2.80;;;;;;;19.09;62.36;101825.53;4833998;29;124304;-66
2021/08/28 04:22:17;;;;;;;6.00;2.60;;;;;;;19.08;62.36;101823.81;4809559;29;123131;-66
2021/08/28 04:25:03;;;;;;;6.55;3.00;;;;;;;19.06;62.24;101820.34;4836035;29;116157;-66
2021/08/28 04:27:48;;;;;;;6.68;2.80;;;;;;;19.06;62.34;101825.72;4822378;29;115681;-66
2021/08/28 04:30:24;;;;;;;6.65;2.88;;;;;;;19.05;62.41;101818.66;4805070;29;126713;-66
2021/08/28 04:32:51;;;;;;;5.82;2.72;;;;;;;19.05;62.36;101813.28;4822681;29;122971;-67
2021/08/28 04:35:19;;;;;;;6.63;2.67;;;;;;;19.06;62.38;101814.97;4822455;29;113457;-66
2021/08/28 04:37:47;;;;;;;7.55;3.00;;;;;;;19.06;62.44;101809.59;4823598;29;113429;-66
2021/08/28 04:40:14;;;;;;;7.28;2.78;;;;;;;19.08;62.51;101813.09;4820275;29;123412;-66
2021/08/28 04:42:43;;;;;;;8.35;3.08;;;;;;;19.10;62.67;101808.47;4835784;29;124090;-67
2021/08/28 04:45:14;;;;;;;5.75;2.88;;;;;;;19.12;62.57;101814.59;4823091;29;113547;-67
2021/08/28 04:48:00;;;;;;;;;;;;;;;19.10;62.11;101821.91;4839473;29;114596;-67
2021/08/28 04:50:27;;;;;;;6.65;3.03;;;;;;;19.14;62.53;101823.41;4807203;29;123401;-67
2021/08/28 04:52:58;;;;;;;8.10;2.85;;;;;;;19.13;62.29;101820.81;4813058;29;123054;-67
2021/08/28 04:55:29;;;;;;;7.70;3.10;;;;;;;19.14;62.31;101823.41;4819919;29;113476;-66
2021/08/28 04:57:56;;;;;;;5.70;2.80;;;;;;;19.13;62.35;101820.81;4838609;29;114448;-66
2021/08/28 05:00:24;;;;;;;6.53;3.55;;;;;;;19.13;62.51;101831.56;4823487;29;123347;-67
2021/08/28 05:03:25;;;;;;;7.13;2.78;;;;;;;19.13;62.47;101832.41;4838721;29;123921;-66
2021/08/28 05:05:54;;;;;;;7.70;3.20;;;;;;;19.13;62.61;101843.16;4808761;29;113393;-66
2021/08/28 05:08:22;;;;;;;6.20;2.97;;;;;;;19.13;62.69;101843.16;4824174;29;113078;-66
2021/08/28 05:10:50;;;;;;;8.32;3.30;;;;;;;19.15;62.53;101841.22;4837046;29;124800;-66
2021/08/28 05:13:17;;;;;;;7.38;3.20;;;;;;;19.17;62.59;101842.00;4830283;29;123637;-66
2021/08/28 05:15:44;;;;;;;6.53;3.05;;;;;;;19.17;62.50;101842.00;4813321;29;114590;-67
2021/08/28 05:18:12;;;;;;;8.55;3.13;;;;;;;19.17;62.50;101839.31;4840518;29;115172;-67
2021/08/28 05:20:39;;;;;;;6.95;3.30;;;;;;;19.18;62.52;101838.34;4837065;29;124367;-67
2021/08/28 05:23:35;;;;;;;6.50;2.88;;;;;;;19.19;62.63;101837.41;4837674;29;123830;-66
2021/08/28 05:26:37;;;;;;;6.63;2.95;;;;;;;19.18;62.32;101841.03;4825750;29;114726;-66
2021/08/28 05:29:04;;;;;;;4.75;2.95;;;;;;;19.17;62.55;101850.06;4807968;29;113184;-66
2021/08/28 05:31:31;;;;;;;5.15;2.92;;;;;;;19.18;62.66;101851.78;4828001;29;123360;-67
2021/08/28 05:33:58;;;;;;;5.50;2.75;;;;;;;19.18;62.63;101857.16;4827760;29;122959;-67
2021/08/28 05:36:43;;;;;;;8.52;3.30;;;;;;;19.18;62.48;101854.47;4822292;29;113295;-67
2021/08/28 05:39:30;;;;;;;6.35;3.05;;;;;;;19.19;62.44;101858.91;4814212;29;114628;-67
2021/08/28 05:41:58;;;;;;;6.57;2.90;;;;;;;19.20;62.55;101852.53;4825355;29;123301;-67
2021/08/28 05:44:26;;;;;;;5.90;3.03;;;;;;;19.22;62.67;101855.13;4837037;29;124369;-67
2021/08/28 05:46:53;;;;;;;5.32;2.83;;;;;;;19.21;62.66;101856.97;4836979;29;114986;-67
2021/08/28 05:49:21;;;;;;;7.40;3.13;;;;;;;19.23;62.55;101854.16;4808744;29;113167;-67
2021/08/28 05:51:56;;;;;;;6.75;3.00;;;;;;;19.24;62.52;101854.06;4808583;29;125809;-67
2021/08/28 05:54:23;;;;;;;4.63;3.00;;;;;;;19.28;62.56;101856.56;4808314;29;123054;-67
2021/08/28 05:56:52;;;;;;;4.65;2.50;;;;;;;19.29;62.49;101847.53;4822012;29;113391;-67
2021/08/28 05:59:19;;;;;;;5.53;2.95;;;;;;;19.31;62.58;101856.34;4810474;29;112833;-67
2021/08/28 06:01:49;;;;;;;8.10;2.92;;;;;;;19.33;62.54;101849.06;4815969;29;123303;-67
2021/08/28 06:04:17;;;;;;;6.28;3.05;;;;;;;19.35;62.50;101849.81;4823126;29;123069;-67
2021/08/28 06:07:03;;;;;;;6.75;2.88;;;;;;;19.37;62.50;101850.59;4838955;29;116067;-67
2021/08/28 06:09:49;;;;;;;;;;;;;;;19.36;62.35;101854.22;4837886;29;115679;-67
2021/08/28 06:12:37;;;;;;;5.60;2.90;;;;;;;19.40;62.20;101855.72;4838670;29;124763;-67
2021/08/28 06:15:24;;;;;;;6.05;2.88;;;;;;;19.41;62.18;101862.84;4801670;29;125045;-67
2021/08/28 06:18:09;;;;;;;9.85;3.33;;;;;;;19.41;62.52;101857.47;4822499;29;113304;-67
2021/08/28 06:20:39;;;;;;;6.40;2.70;;;;;;;19.45;62.65;101864.34;4811488;29;113176;-67
2021/08/28 06:23:09;;;;;;;4.43;2.75;;;;;;;19.48;62.72;101857.91;4818847;29;123224;-66
2021/08/28 06:26:08;;;;;;;6.15;3.00;;;;;;;19.52;62.56;101860.31;4798659;29;123731;-67
2021/08/28 06:28:35;;;;;;;4.97;2.75;;;;;;;19.56;62.64;101861.81;4838685;29;114772;-67
2021/08/28 06:31:03;;;;;;;5.18;3.00;;;;;;;19.58;62.72;101851.81;4807327;29;113250;-67
2021/08/28 06:33:30;;;;;;;6.10;2.83;;;;;;;19.64;62.60;101862.16;4818603;29;123232;-67
2021/08/28 06:35:57;;;;;;;6.57;2.80;;;;;;;19.68;62.65;101859.28;4811251;29;123004;-67
2021/08/28 06:38:43;;;;;;;7.05;2.90;;;;;;;19.73;62.61;101851.81;4839185;29;115121;-67
2021/08/28 06:41:48;;;;;;;6.82;2.85;;;;;;;19.79;62.69;101862.13;4744886;29;115053;-66
2021/08/28 06:44:34;;;;;;;6.50;2.88;;;;;;;19.85;62.63;101861.69;4742157;29;124591;-66
2021/08/28 06:47:10;;;;;;;5.05;2.95;;;;;;;19.89;62.58;101863.25;4803375;29;124178;-66
2021/08/28 06:49:56;;;;;;;7.35;3.40;;;;;;;19.96;62.34;101864.53;4837413;29;115062;-66
2021/08/28 06:52:41;;;;;;;5.57;2.92;;;;;;;19.99;62.20;101858.94;4820869;29;114610;-66
2021/08/28 06:55:28;;;;;;;5.85;2.47;;;;;;;20.02;62.12;101857.88;4837642;29;124981;-66
2021/08/28 06:58:26;;;;;;;7.18;2.70;;;;;;;20.06;62.10;101869.28;4826265;29;124890;-65
2021/08/28 07:01:11;;;;;;;;;;;;;;;20.08;62.03;101859.25;4824209;29;115765;-65
2021/08/28 07:03:58;;;;;;;5.75;2.90;;;;;;;20.15;61.94;101863.25;4838076;29;115781;-65
2021/08/28 07:06:46;;;;;;;6.68;2.85;;;;;;;20.21;62.15;101857.44;4837409;29;124566;-64
2021/08/28 07:09:14;;;;;;;4.55;2.67;;;;;;;20.31;62.05;101858.53;4825720;29;122719;-65
2021/08/28 07:11:41;;;;;;;6.95;2.78;;;;;;;20.40;61.98;101863.28;4835939;29;115049;-65
2021/08/28 07:14:08;;;;;;;5.47;2.28;;;;;;;20.51;61.99;101864.34;4809111;29;112937;-64
2021/08/28 07:16:35;;;;;;;7.07;2.88;;;;;;;20.60;61.70;101869.09;4837940;29;124084;-65
2021/08/28 07:19:02;;;;;;;4.35;2.40;;;;;;;20.66;61.59;101868.66;4822296;29;124068;-65
2021/08/28 07:21:29;;;;;;;4.32;2.33;;;;;;;20.70;61.18;101870.19;4832729;29;113461;-64
2021/08/28 07:23:56;;;;;;;4.10;2.30;;;;;;;20.70;60.84;101875.56;4834828;29;114314;-64
2021/08/28 07:26:34;;;;;;;4.50;2.20;;;;;;;20.71;60.95;101874.59;4818884;29;127243;-64
2021/08/28 07:29:32;;;;;;;5.22;2.30;;;;;;;20.70;60.68;101870.19;4776105;29;124275;-64
2021/08/28 07:31:59;;;;;;;3.90;2.40;;;;;;;20.72;60.57;101875.44;4808082;29;113654;-64
2021/08/28 07:34:27;;;;;;;5.70;2.15;;;;;;;20.73;60.68;101869.09;4834216;29;114020;-65
2021/08/28 07:36:54;;;;;;;3.03;2.05;;;;;;;20.75;60.63;101878.78;4817670;29;123519;-64
2021/08/28 07:39:22;;;;;;;4.03;2.10;;;;;;;20.77;60.72;101882.22;4834814;29;124130;-63
2021/08/28 07:41:49;;;;;;;4.32;2.10;;;;;;;20.83;60.48;101874.66;4808455;29;113560;-65
2021/08/28 07:44:16;;;;;;;5.38;2.75;;;;;;;20.85;60.58;101876.31;4834875;29;114285;-65
2021/08/28 07:46:45;;;;;;;5.65;2.60;;;;;;;20.88;60.53;101878.75;4820514;29;123131;-65
2021/08/28 07:49:24;;;;;;;4.15;2.25;;;;;;;20.91;60.51;101883.06;4819118;29;123035;-65
2021/08/28 07:51:52;;;;;;;4.40;2.63;;;;;;;20.94;60.29;101885.53;4820348;29;115394;-65
2021/08/28 07:54:20;;;;;;;4.60;2.42;;;;;;;20.95;60.39;101879.19;4822792;29;114082;-65
2021/08/28 07:56:49;;;;;;;5.63;2.40;;;;;;;20.97;60.30;101882.63;4817499;29;124216;-66
2021/08/28 07:59:17;;;;;;;4.25;2.50;;;;;;;21.00;60.30;101871.59;4822636;29;122988;-65
2021/08/28 08:01:44;;;;;;;5.15;2.70;;;;;;;21.06;60.49;101875.69;4825212;29;113727;-65
2021/08/28 08:04:12;;;;;;;5.63;2.47;;;;;;;21.12;60.56;101881.50;4833758;29;114155;-64
2021/08/28 08:06:59;;;;;;;6.22;2.67;;;;;;;21.25;60.77;101883.28;4834772;29;123639;-64
2021/08/28 08:09:49;;;;;;;6.15;3.10;;;;;;;21.37;60.32;101885.06;4793726;29;124662;-64
2021/08/28 08:12:35;;;;;;;;;;;;;;;21.40;60.18;101879.47;4837594;29;115862;-64
2021/08/28 08:15:21;;;;;;;5.00;2.73;;;;;;;21.42;59.92;101877.53;4837569;29;114762;-65
2021/08/28 08:18:21;;;;;;;6.30;3.20;;;;;;;21.42;59.91;101882.91;4813195;29;124143;-64
2021/08/28 08:21:08;;;;;;;7.75;2.88;;;;;;;21.43;59.62;101889.16;4840599;29;125110;-64
2021/08/28 08:23:55;;;;;;;6.35;2.72;;;;;;;21.42;59.43;101888.31;4840761;29;114315;-64
2021/08/28 08:26:42;;;;;;;4.05;2.63;;;;;;;21.41;59.35;101889.25;4820452;29;113867;-65
2021/08/28 08:29:28;;;;;;;5.50;2.55;;;;;;;21.39;59.36;101888.53;4841058;29;124987;-64
2021/08/28 08:32:00;;;;;;;6.82;2.95;;;;;;;21.40;59.37;101895.63;4823839;29;123052;-64
2021/08/28 08:34:47;;;;;;;5.95;2.92;;;;;;;21.42;59.42;101899.09;4838878;29;112951;-64
2021/08/28 08:37:16;;;;;;;7.55;3.20;;;;;;;21.45;59.42;101893.47;4824603;29;113158;-65
2021/08/28 08:39:43;;;;;;;4.78;2.70;;;;;;;21.48;59.37;101898.66;4839723;29;123311;-65
2021/08/28 08:42:13;;;;;;;5.28;2.88;;;;;;;21.51;59.01;101901.13;4823689;29;123652;-64
2021/08/28 08:44:42;;;;;;;7.40;3.40;;;;;;;21.53;59.05;101891.09;4860499;23;115758;-75
2021/08/28 08:47:10;;;;;;;5.72;2.80;;;;;;;21.57;59.02;101903.34;4869767;28;114727;-75
2021/08/28 08:49:38;;;;;;;6.80;2.90;;;;;;;21.63;58.99;101901.19;4865080;28;123627;-75
2021/08/28 08:52:07;;;;;;;5.65;2.90;;;;;;;21.69;59.26;101906.09;4878634;28;123188;-75
2021/08/28 08:54:52;;;;;;;;;;;;;;;21.71;59.12;101904.16;4860639;28;113595;-75
2021/08/28 08:57:19;;;;;;;6.88;2.67;;;;;;;21.77;58.86;101909.06;4870948;28;113050;-75
2021/08/28 08:59:46;;;;;;;5.65;3.13;;;;;;;21.78;58.55;101911.66;4845634;28;123172;-75
2021/08/28 09:02:14;;;;;;;5.97;2.85;;;;;;;21.79;58.38;101907.13;4874682;28;123975;-75
2021/08/28 09:05:19;;;;;;;6.93;2.80;;;;;;;21.80;58.24;101908.84;4891894;28;114050;-74
2021/08/28 09:07:46;;;;;;;5.55;2.72;;;;;;;21.81;58.24;101910.56;4844597;28;114349;-75
2021/08/28 09:10:13;;;;;;;6.20;3.10;;;;;;;21.82;57.98;101912.28;4871194;28;123945;-75
2021/08/28 09:12:41;;;;;;;4.85;2.88;;;;;;;21.82;57.97;101912.28;4851010;28;123461;-75
2021/08/28 09:15:14;;;;;;;6.22;3.75;;;;;;;21.84;57.88;101915.72;4854985;28;113348;-75
2021/08/28 09:17:43;;;;;;;6.07;3.17;;;;;;;21.86;57.94;101913.78;4853976;28;113735;-75
2021/08/28 09:20:19;;;;;;;7.20;3.28;;;;;;;21.90;57.93;101909.84;4858803;28;123181;-75
2021/08/28 09:22:47;;;;;;;5.32;3.05;;;;;;;21.95;57.85;101907.69;4874155;28;123965;-76
2021/08/28 09:25:22;;;;;;;6.63;3.03;;;;;;;21.95;57.59;101902.28;4856073;28;113103;-76
2021/08/28 09:27:51;;;;;;;5.53;2.90;;;;;;;21.96;57.44;101914.81;4859475;28;112065;-75
2021/08/28 09:30:32;;;;;;;6.72;3.03;;;;;;;21.97;57.24;101903.03;4855209;28;124701;-76
2021/08/28 09:33:05;;;;;;;6.85;3.38;;;;;;;22.02;57.50;101907.19;4851166;28;124759;-75
2021/08/28 09:35:36;;;;;;;4.78;3.22;;;;;;;22.06;57.30;101908.72;4866809;28;115934;-75
2021/08/28 09:38:25;;;;;;;6.97;3.40;;;;;;;22.11;57.24;101906.50;4858841;28;114958;-74
2021/08/28 09:40:57;;;;;;;7.95;3.80;;;;;;;22.18;57.22;101913.16;4859039;28;123680;-76
2021/08/28 09:43:26;;;;;;;5.70;3.47;;;;;;;22.26;57.02;101916.13;4892231;28;123015;-75
2021/08/28 09:45:55;;;;;;;6.40;3.50;;;;;;;22.32;56.55;101904.88;4875648;28;114528;-75
2021/08/28 09:48:29;;;;;;;7.38;3.90;;;;;;;22.37;56.26;101909.06;4862140;28;113524;-76
2021/08/28 09:50:59;;;;;;;8.50;4.10;;;;;;;22.42;56.67;101909.56;4888488;28;124152;-75
2021/08/28 09:53:41;;;;;;;6.93;3.70;;;;;;;22.49;56.44;101917.06;4855964;28;123859;-75
2021/08/28 09:56:09;;;;;;;5.82;3.42;;;;;;;22.53;56.25;101901.47;4880387;28;114723;-75
2021/08/28 09:58:40;;;;;;;6.43;3.13;;;;;;;22.57;56.26;101908.34;4877044;28;114544;-75
2021/08/28 10:01:07;;;;;;;5.55;3.35;;;;;;;22.60;56.21;101913.50;4891493;28;124539;-75
2021/08/28 10:03:35;;;;;;;5.68;3.22;;;;;;;22.63;55.90;101913.25;4886514;28;123674;-76
2021/08/28 10:06:05;;;;;;;6.10;2.95;;;;;;;22.64;55.64;101915.00;4847310;28;112042;-75
2021/08/28 10:08:33;;;;;;;4.95;3.00;;;;;;;22.62;55.37;101911.56;4858058;28;115247;-75
2021/08/28 10:11:01;;;;;;;4.80;3.22;;;;;;;22.60;54.62;101924.28;4858011;28;123228;-74
2021/08/28 10:13:33;;;;;;;7.18;3.03;;;;;;;22.57;54.34;101927.25;4857545;28;122605;-73
2021/08/28 10:16:03;;;;;;;7.68;3.28;;;;;;;22.53;54.50;101925.78;4874877;28;114213;-73
2021/08/28 10:18:33;;;;;;;4.60;3.00;;;;;;;22.52;54.54;101926.75;4864345;28;113739;-74
2021/08/28 10:21:03;;;;;;;5.32;3.35;;;;;;;22.53;54.78;101912.28;4852881;28;124124;-73
2021/08/28 10:23:36;;;;;;;5.05;3.13;;;;;;;22.57;54.70;101921.84;4849847;28;123749;-73
2021/08/28 10:26:07;;;;;;;5.25;2.95;;;;;;;22.61;54.30;101931.44;4840410;28;115355;-74
2021/08/28 10:28:35;;;;;;;5.13;2.80;;;;;;;22.65;54.30;101924.78;4859066;28;114608;-75
2021/08/28 10:31:04;;;;;;;6.15;3.05;;;;;;;22.69;54.19;101915.47;4869610;28;124218;-74
2021/08/28 10:33:31;;;;;;;6.40;3.28;;;;;;;22.76;54.06;101917.69;4824128;29;122172;-74
2021/08/28 10:35:58;;;;;;;4.82;3.22;;;;;;;22.82;53.79;101925.31;4841882;28;114436;-74
2021/08/28 10:38:27;;;;;;;4.80;2.90;;;;;;;22.86;53.59;101907.84;4851420;28;113318;-74
2021/08/28 10:40:55;;;;;;;5.20;3.22;;;;;;;22.92;53.76;101908.25;4862317;28;123039;-77
2021/08/28 10:43:25;;;;;;;7.75;2.80;;;;;;;22.98;53.47;101912.28;4892901;28;123676;-74
2021/08/28 10:45:52;;;;;;;7.75;3.13;;;;;;;23.03;53.64;101903.78;4891841;28;115636;-74
2021/08/28 10:48:56;;;;;;;5.47;3.13;;;;;;;23.07;53.44;101910.69;4855837;28;113506;-74
2021/08/28 10:51:33;;;;;;;4.75;3.10;;;;;;;23.10;53.32;101916.72;4852002;28;124279;-74
2021/08/28 10:54:06;;;;;;;6.90;3.05;;;;;;;23.16;53.14;101907.25;4859113;28;123237;-74
2021/08/28 10:56:45;;;;;;;4.63;2.60;;;;;;;23.20;53.35;101921.38;4880382;28;114202;-74
2021/08/28 10:59:26;;;;;;;5.38;3.03;;;;;;;23.27;53.18;101906.38;4879514;28;114044;-73
2021/08/28 11:02:13;;;;;;;4.63;2.65;;;;;;;23.34;53.31;101907.59;4873295;28;124126;-74
2021/08/28 11:04:47;;;;;;;6.45;3.08;;;;;;;23.42;52.53;101894.28;4861650;28;123759;-73
2021/08/28 11:07:26;;;;;;;6.03;2.88;;;;;;;23.48;52.45;101888.38;4856853;28;115309;-73
2021/08/28 11:10:16;;;;;;;3.97;2.58;;;;;;;23.51;52.24;101890.81;4855937;28;113333;-73
2021/08/28 11:12:58;;;;;;;5.45;2.50;;;;;;;23.54;51.96;101896.97;4853325;28;124120;-74
2021/08/28 11:15:29;;;;;;;6.28;3.22;;;;;;;23.54;52.05;101889.69;4867984;28;123591;-74
2021/08/28 11:18:01;;;;;;;5.45;2.78;;;;;;;23.57;51.60;101902.13;4856494;28;114616;-74
2021/08/28 11:20:48;;;;;;;4.32;2.70;;;;;;;23.56;51.03;101906.66;4851686;28;114610;-73
2021/08/28 11:23:17;;;;;;;4.68;2.47;;;;;;;23.55;51.03;101898.69;4861250;28;123541;-73
2021/08/28 11:25:48;;;;;;;4.43;2.42;;;;;;;23.54;50.89;101902.38;4839276;28;121683;-74
2021/08/28 11:28:19;;;;;;;4.65;2.50;;;;;;;23.52;50.86;101906.03;4842058;28;113834;-74
2021/08/28 11:30:46;;;;;;;3.80;2.30;;;;;;;23.52;50.94;101908.75;4838517;28;113636;-73
2021/08/28 11:33:19;;;;;;;4.35;2.67;;;;;;;23.49;50.47;101906.31;4860007;28;124063;-74
2021/08/28 11:35:49;;;;;;;4.53;2.20;;;;;;;23.44;50.76;101902.28;4860147;28;123870;-74
2021/08/28 11:38:23;;;;;;;4.28;2.30;;;;;;;23.41;50.21;101913.34;4864126;28;113137;-74
2021/08/28 11:40:59;;;;;;;6.28;2.58;;;;;;;23.33;50.15;101905.88;4874330;28;113628;-74
2021/08/28 11:43:31;;;;;;;3.63;2.15;;;;;;;23.29;50.00;101909.81;4851677;28;123850;-74
2021/08/28 11:46:04;;;;;;;4.35;2.30;;;;;;;23.23;49.97;101910.31;4873281;28;124563;-74
2021/08/28 11:48:34;;;;;;;5.60;2.20;;;;;;;23.18;49.96;101901.72;4879788;28;113935;-73